Search for airport 
image banner adimage banner ad
image banner ad

VAKS - Keshod

Located in Keshod, India

ICAO - VAKS, IATA - IXK

Data provided by Airmate  

General information

Coordinates: N21°18'54" E70°16'9"
Elevation is 167 feet MSL.
 
Rated:
View ratings: [VIEW]


View others Airports in Gujarat

Operational data

Open for public use
Current time UTC:
Current local time:
Weather at : VAPR - Porbandar ( 73 km )
TAF: TAF VAPR 202000Z 2021/2106 16005KT 5000 HZ SCT020 SCT080 TEMPO 2021/2024 3000 HZ TSRA FEW015 SCT020 FEW030CB BKN080 BECMG 2101/2103 02005KT 3000 HZ BECMG 2104/2106 4000 HZ RA FEW015 SCT020 BKN080
View NOTAMs / SUP AIP / TFR affecting this airport [VIEW]
Communications frequencies: [VIEW]

Runways:

RWY identifierQFULength (ft)Width (ft)SurfaceLDA (ft)
0550°4498148ASP
23230°4498148

Airport contact information

Address: Keshod India

Satellite view of VAKS